createdAt,value
2023-05-25T00:01:10.278Z,70.12
2023-05-25T00:03:40.396Z,70.41
2023-05-25T00:06:07.298Z,69.93
2023-05-25T00:08:33.823Z,69.82
2023-05-25T00:11:00.263Z,69.98
2023-05-25T00:13:26.710Z,69.94
2023-05-25T00:15:53.161Z,70.13
2023-05-25T00:18:19.622Z,70.27
2023-05-25T00:20:47.436Z,69.36
2023-05-25T00:23:14.120Z,69.90
2023-05-25T00:25:40.519Z,69.77
2023-05-25T00:28:07.034Z,69.45
2023-05-25T00:30:33.507Z,69.49
2023-05-25T00:33:01.524Z,69.53
2023-05-25T00:35:28.305Z,70.17
2023-05-25T00:37:54.820Z,69.89
2023-05-25T00:40:21.955Z,70.29
2023-05-25T00:42:48.715Z,70.34
2023-05-25T00:45:15.144Z,70.94
2023-05-25T00:47:43.142Z,70.97
2023-05-25T00:50:15.031Z,70.62
2023-05-25T00:52:41.722Z,70.76
2023-05-25T00:55:11.679Z,70.81
2023-05-25T00:57:41.475Z,70.69
2023-05-25T01:00:11.511Z,71.17
2023-05-25T01:02:43.687Z,71.30
2023-05-25T01:05:12.333Z,70.75
2023-05-25T01:07:42.067Z,71.08
2023-05-25T01:10:11.256Z,71.08
2023-05-25T01:12:39.011Z,71.05
2023-05-25T01:15:05.978Z,71.68
2023-05-25T01:17:33.145Z,72.06
2023-05-25T01:20:09.547Z,71.67
2023-05-25T01:22:47.817Z,71.26
2023-05-25T01:25:21.895Z,71.61
2023-05-25T01:27:56.919Z,72.10
2023-05-25T01:30:26.004Z,72.11
2023-05-25T01:32:53.395Z,71.65
2023-05-25T01:35:21.767Z,71.58
2023-05-25T01:37:49.866Z,71.80
2023-05-25T01:40:16.404Z,71.57
2023-05-25T01:42:42.828Z,71.39
2023-05-25T01:45:10.829Z,70.98
2023-05-25T01:47:53.281Z,71.17
2023-05-25T01:50:34.020Z,71.26
2023-05-25T01:53:03.852Z,71.74
2023-05-25T01:55:37.803Z,71.58
2023-05-25T01:58:05.759Z,72.05
2023-05-25T02:00:33.287Z,71.82
2023-05-25T02:03:01.473Z,72.42
2023-05-25T02:05:28.104Z,73.90
2023-05-25T02:07:54.542Z,74.19
2023-05-25T02:10:21.008Z,74.03
2023-05-25T02:12:47.409Z,73.52
2023-05-25T02:15:15.648Z,73.74
2023-05-25T02:17:43.312Z,73.96
2023-05-25T02:20:11.329Z,74.17
2023-05-25T02:22:38.176Z,74.39
2023-05-25T02:25:04.899Z,74.48
2023-05-25T02:27:31.317Z,74.00
2023-05-25T02:29:57.730Z,73.88
2023-05-25T02:32:24.818Z,74.06
2023-05-25T02:34:51.596Z,73.57
2023-05-25T02:37:17.999Z,74.24
2023-05-25T02:39:44.422Z,74.93
2023-05-25T02:42:10.828Z,74.66
2023-05-25T02:44:37.244Z,74.46
2023-05-25T02:47:03.822Z,75.05
2023-05-25T02:49:30.335Z,74.69
2023-05-25T02:51:56.736Z,75.20
2023-05-25T02:54:23.201Z,74.45
2023-05-25T02:56:49.597Z,75.02
2023-05-25T02:59:16.008Z,75.73
2023-05-25T03:01:42.434Z,75.68
2023-05-25T03:04:08.935Z,75.48
2023-05-25T03:06:36.590Z,76.08
2023-05-25T03:09:05.122Z,76.38
2023-05-25T03:11:31.556Z,75.99
2023-05-25T03:13:58.147Z,75.86
2023-05-25T03:16:25.955Z,76.13
2023-05-25T03:18:52.484Z,75.84
2023-05-25T03:21:18.899Z,75.51
2023-05-25T03:23:45.409Z,76.46
2023-05-25T03:26:11.852Z,76.13
2023-05-25T03:28:38.257Z,77.22
2023-05-25T03:31:04.702Z,76.58
2023-05-25T03:33:31.196Z,76.60
2023-05-25T03:35:57.627Z,76.85
2023-05-25T03:38:24.045Z,76.00
2023-05-25T03:40:50.538Z,76.18
2023-05-25T03:43:17.198Z,76.34
2023-05-25T03:45:43.915Z,75.90
2023-05-25T03:48:10.503Z,75.96
2023-05-25T03:50:37.023Z,75.86
2023-05-25T03:53:03.553Z,76.10
2023-05-25T03:55:30.781Z,75.41
2023-05-25T03:57:57.200Z,75.08
2023-05-25T04:00:23.752Z,74.62
2023-05-25T04:02:50.245Z,74.60
2023-05-25T04:05:16.678Z,73.49
2023-05-25T04:07:43.088Z,73.84
2023-05-25T04:10:10.000Z,74.85
2023-05-25T04:12:37.271Z,73.95
2023-05-25T04:15:05.455Z,74.57
2023-05-25T04:17:31.881Z,75.66
2023-05-25T04:19:58.339Z,75.72
2023-05-25T04:22:24.791Z,75.56
2023-05-25T04:24:51.184Z,75.97
2023-05-25T04:27:17.605Z,76.58
2023-05-25T04:29:44.089Z,75.88
2023-05-25T04:32:10.586Z,76.95
2023-05-25T04:34:37.675Z,76.95
2023-05-25T04:37:05.506Z,77.85
2023-05-25T04:39:32.685Z,78.13
2023-05-25T04:41:59.146Z,78.64
2023-05-25T04:44:25.758Z,78.43
2023-05-25T04:46:53.626Z,78.09
2023-05-25T04:49:20.160Z,79.07
2023-05-25T04:51:46.567Z,78.09
2023-05-25T04:54:13.041Z,78.58
2023-05-25T04:56:39.450Z,78.80
2023-05-25T04:59:06.250Z,78.08
2023-05-25T05:01:34.442Z,77.42
2023-05-25T05:04:00.999Z,77.53
2023-05-25T05:06:27.504Z,76.90
2023-05-25T05:08:53.923Z,75.89
2023-05-25T05:11:20.485Z,76.74
2023-05-25T05:13:46.892Z,77.23
2023-05-25T05:16:13.322Z,77.19
2023-05-25T05:18:39.766Z,76.64
2023-05-25T05:21:06.220Z,76.42
2023-05-25T05:23:34.546Z,76.47
2023-05-25T05:26:00.986Z,75.63
2023-05-25T05:28:27.502Z,75.39
2023-05-25T05:30:54.014Z,76.10
2023-05-25T05:33:20.592Z,76.80
2023-05-25T05:35:47.074Z,76.07
2023-05-25T05:38:13.465Z,76.05
2023-05-25T05:40:39.860Z,75.02
2023-05-25T05:43:06.837Z,75.59
2023-05-25T05:45:33.242Z,73.91
2023-05-25T05:47:59.701Z,74.95
2023-05-25T05:50:26.159Z,73.87
2023-05-25T05:52:53.700Z,74.66
2023-05-25T05:55:21.022Z,74.01
2023-05-25T05:57:47.456Z,73.30
2023-05-25T06:00:14.486Z,73.08
2023-05-25T06:02:41.952Z,72.87
2023-05-25T06:05:08.930Z,73.60
2023-05-25T06:07:35.525Z,72.91
2023-05-25T06:10:02.060Z,71.56
2023-05-25T06:12:28.467Z,71.12
2023-05-25T06:14:54.902Z,71.90
2023-05-25T06:17:21.536Z,71.13
2023-05-25T06:19:48.001Z,71.14
2023-05-25T06:22:14.398Z,70.14
2023-05-25T06:24:40.920Z,71.46
2023-05-25T06:27:07.414Z,70.13
2023-05-25T06:29:34.024Z,69.35
2023-05-25T06:32:00.732Z,68.86
2023-05-25T06:34:27.220Z,69.12
2023-05-25T06:36:53.629Z,67.86
2023-05-25T06:39:20.663Z,67.81
2023-05-25T06:41:47.128Z,67.51
2023-05-25T06:44:13.536Z,67.56
2023-05-25T06:46:40.101Z,66.85
2023-05-25T06:49:06.679Z,65.09
2023-05-25T06:51:33.429Z,65.18
2023-05-25T06:53:59.831Z,65.66
2023-05-25T06:56:26.388Z,65.00
2023-05-25T06:58:52.816Z,64.66
2023-05-25T07:01:19.368Z,64.23
2023-05-25T07:03:45.904Z,64.06
2023-05-25T07:06:12.874Z,63.22
2023-05-25T07:08:39.462Z,62.74
2023-05-25T07:11:06.075Z,63.04
2023-05-25T07:13:32.489Z,62.94
2023-05-25T07:15:58.918Z,63.03
2023-05-25T07:18:26.292Z,62.91
2023-05-25T07:20:53.475Z,61.92
2023-05-25T07:23:20.101Z,60.94
2023-05-25T07:25:46.773Z,60.19
2023-05-25T07:28:13.348Z,58.96
2023-05-25T07:30:40.956Z,57.23
2023-05-25T07:33:07.473Z,55.60
2023-05-25T07:35:35.412Z,56.31
2023-05-25T07:38:05.124Z,57.37
2023-05-25T07:40:31.544Z,57.33
2023-05-25T07:42:58.025Z,55.69
2023-05-25T07:45:24.513Z,55.66
2023-05-25T07:47:51.173Z,56.23
2023-05-25T07:50:17.901Z,55.84
2023-05-25T07:52:44.353Z,55.49
2023-05-25T07:55:11.216Z,54.81
2023-05-25T07:57:37.696Z,55.99
2023-05-25T08:00:10.998Z,55.66
2023-05-25T08:02:37.553Z,54.85
2023-05-25T08:05:06.082Z,54.93
2023-05-25T08:07:33.615Z,54.00
2023-05-25T08:10:00.467Z,52.63
2023-05-25T08:12:45.864Z,52.92
2023-05-25T08:15:16.516Z,53.38
2023-05-25T08:17:43.096Z,52.76
2023-05-25T08:20:10.334Z,52.18
2023-05-25T08:22:36.908Z,52.20
2023-05-25T08:25:04.584Z,53.03
2023-05-25T08:27:32.789Z,51.98
2023-05-25T08:30:01.095Z,52.21
2023-05-25T08:32:27.524Z,51.17
2023-05-25T08:34:53.975Z,52.51
2023-05-25T08:37:23.304Z,52.54
2023-05-25T08:39:49.797Z,53.62
2023-05-25T08:42:16.251Z,52.20
2023-05-25T08:44:42.753Z,51.70
2023-05-25T08:47:11.810Z,51.45
2023-05-25T08:49:39.420Z,51.22
2023-05-25T08:52:10.552Z,50.31
2023-05-25T08:54:37.937Z,50.32
2023-05-25T08:57:15.120Z,48.73
2023-05-25T08:59:47.875Z,47.90
2023-05-25T09:02:22.499Z,48.60
2023-05-25T09:04:49.330Z,46.72
2023-05-25T09:07:16.287Z,48.42
2023-05-25T09:09:43.477Z,49.83
2023-05-25T09:12:10.906Z,48.93
2023-05-25T09:14:38.028Z,48.17
2023-05-25T09:17:04.734Z,47.88
2023-05-25T09:19:31.163Z,47.18
2023-05-25T09:22:13.470Z,46.45
2023-05-25T09:24:41.456Z,45.33
2023-05-25T09:27:11.764Z,47.62
2023-05-25T09:29:38.437Z,48.30
2023-05-25T09:32:06.777Z,47.08
2023-05-25T09:34:36.233Z,47.11
2023-05-25T09:37:04.493Z,48.61
2023-05-25T09:39:31.145Z,48.76
2023-05-25T09:41:57.860Z,47.93
2023-05-25T09:44:24.286Z,47.01
2023-05-25T09:46:51.052Z,47.63
2023-05-25T09:49:17.500Z,46.44
2023-05-25T09:51:44.053Z,45.66
2023-05-25T09:54:11.207Z,46.72
2023-05-25T09:56:37.700Z,47.26
2023-05-25T09:59:04.150Z,46.34
2023-05-25T10:01:32.611Z,45.57
2023-05-25T10:04:10.296Z,44.55
2023-05-25T10:06:38.971Z,45.57
2023-05-25T10:09:06.879Z,45.31
2023-05-25T10:11:36.276Z,45.87
2023-05-25T10:14:07.047Z,44.15
2023-05-25T10:16:34.511Z,46.18
2023-05-25T10:19:16.137Z,47.28
2023-05-25T10:21:45.647Z,47.38
2023-05-25T10:24:38.332Z,46.54
2023-05-25T10:27:22.516Z,46.77
2023-05-25T10:29:55.916Z,45.53
2023-05-25T10:32:23.030Z,46.66
2023-05-25T10:34:52.260Z,46.82
2023-05-25T10:37:18.796Z,47.56
2023-05-25T10:39:45.986Z,46.18
2023-05-25T10:42:13.181Z,45.72
2023-05-25T10:44:43.004Z,46.50
2023-05-25T10:47:10.436Z,46.48
2023-05-25T10:49:53.564Z,45.75
2023-05-25T10:52:20.412Z,44.64
2023-05-25T10:54:48.523Z,46.00
2023-05-25T10:57:20.655Z,44.02
2023-05-25T10:59:52.145Z,46.19
2023-05-25T11:02:24.812Z,45.36
2023-05-25T11:05:26.184Z,45.63
2023-05-25T11:07:59.653Z,45.38
2023-05-25T11:10:38.209Z,45.30
2023-05-25T11:13:32.107Z,45.22
2023-05-25T11:16:14.787Z,46.17
2023-05-25T11:18:41.973Z,46.11
2023-05-25T11:21:22.301Z,45.36
2023-05-25T11:24:16.367Z,47.15
2023-05-25T11:27:05.948Z,45.56
2023-05-25T11:29:33.068Z,45.10
2023-05-25T11:32:00.678Z,43.85
2023-05-25T11:34:28.121Z,43.17
2023-05-25T11:36:58.435Z,44.22
2023-05-25T11:39:24.879Z,43.61
2023-05-25T11:41:55.994Z,44.07
2023-05-25T11:44:29.606Z,43.74
2023-05-25T11:46:57.482Z,43.97
2023-05-25T11:49:25.882Z,45.13
2023-05-25T11:51:53.517Z,44.72
2023-05-25T11:54:28.133Z,45.15
2023-05-25T11:56:59.070Z,44.42
2023-05-25T11:59:28.217Z,45.61
2023-05-25T12:02:01.080Z,47.18
2023-05-25T12:04:28.921Z,47.47
2023-05-25T12:07:06.780Z,48.01
2023-05-25T12:09:33.995Z,48.87
2023-05-25T12:12:02.840Z,51.21
2023-05-25T12:14:29.941Z,49.39
2023-05-25T12:16:57.698Z,49.54
2023-05-25T12:19:24.270Z,47.88
2023-05-25T12:21:51.802Z,49.30
2023-05-25T12:24:18.910Z,49.57
2023-05-25T12:26:58.793Z,48.55
2023-05-25T12:29:26.342Z,48.72
2023-05-25T12:31:52.756Z,49.71
2023-05-25T12:34:20.163Z,48.29
2023-05-25T12:36:49.871Z,47.33
2023-05-25T12:39:29.359Z,48.80
2023-05-25T12:42:00.001Z,47.21
2023-05-25T12:44:31.340Z,46.85
2023-05-25T12:47:11.605Z,45.18
2023-05-25T12:49:38.796Z,47.12
2023-05-25T12:52:06.125Z,46.20
2023-05-25T12:54:44.014Z,45.36
2023-05-25T12:57:13.094Z,44.91
2023-05-25T12:59:44.966Z,46.51
2023-05-25T13:02:13.008Z,47.80
2023-05-25T13:04:41.093Z,48.98
2023-05-25T13:07:10.945Z,47.85
2023-05-25T13:09:37.661Z,45.31
2023-05-25T13:12:04.507Z,44.83
2023-05-25T13:14:31.040Z,44.70
2023-05-25T13:16:57.678Z,44.80
2023-05-25T13:19:25.703Z,44.40
2023-05-25T13:21:52.782Z,45.83
2023-05-25T13:24:22.435Z,46.56
2023-05-25T13:26:51.106Z,46.29
2023-05-25T13:29:17.998Z,46.33
2023-05-25T13:31:44.520Z,39.18
2023-05-25T13:34:11.017Z,37.27
2023-05-25T13:36:37.448Z,33.05
2023-05-25T13:39:05.278Z,33.97
2023-05-25T13:41:31.808Z,30.97
2023-05-25T13:43:58.335Z,29.76
2023-05-25T13:46:34.017Z,28.73
2023-05-25T13:49:02.570Z,30.07
2023-05-25T13:51:28.981Z,28.38
2023-05-25T13:53:55.408Z,30.06
2023-05-25T13:56:22.339Z,29.68
2023-05-25T13:58:48.804Z,27.01
2023-05-25T14:01:15.251Z,30.15
2023-05-25T14:03:41.811Z,34.21
2023-05-25T14:06:08.315Z,34.88
2023-05-25T14:08:34.731Z,28.82
2023-05-25T14:11:01.235Z,35.31
2023-05-25T14:13:27.627Z,29.92
2023-05-25T14:15:54.040Z,28.11
2023-05-25T14:18:20.496Z,27.20
2023-05-25T14:20:47.335Z,28.58
2023-05-25T14:23:15.848Z,25.01
2023-05-25T14:25:44.357Z,23.85
2023-05-25T14:28:10.936Z,24.51
2023-05-25T14:30:37.343Z,22.02
2023-05-25T14:33:03.899Z,34.16
2023-05-25T14:35:30.330Z,27.62
2023-05-25T14:37:56.748Z,23.76
2023-05-25T14:40:23.150Z,21.88
2023-05-25T14:42:49.757Z,26.79
2023-05-25T14:45:16.376Z,25.94
2023-05-25T14:47:42.982Z,26.97
2023-05-25T14:50:09.615Z,25.69
2023-05-25T14:52:37.283Z,27.40
2023-05-25T14:55:03.844Z,25.93
2023-05-25T14:57:30.367Z,22.56
2023-05-25T14:59:57.027Z,26.31
2023-05-25T15:02:23.482Z,24.84
2023-05-25T15:04:49.962Z,24.75
2023-05-25T15:07:16.373Z,23.60
2023-05-25T15:09:43.164Z,23.72
2023-05-25T15:12:09.697Z,20.62
2023-05-25T15:14:41.140Z,19.89
2023-05-25T15:17:10.736Z,21.43
2023-05-25T15:19:37.610Z,20.75
2023-05-25T15:22:04.211Z,22.21
2023-05-25T15:24:30.694Z,24.08
2023-05-25T15:26:57.098Z,23.41
2023-05-25T15:29:23.576Z,22.20
2023-05-25T15:31:53.707Z,24.90
2023-05-25T15:34:20.556Z,23.17
2023-05-25T15:36:46.999Z,25.16
2023-05-25T15:39:14.666Z,24.33
2023-05-25T15:41:41.728Z,23.25
2023-05-25T15:44:12.231Z,26.50
2023-05-25T15:46:40.170Z,23.76
2023-05-25T15:49:11.169Z,25.56
2023-05-25T15:51:41.905Z,25.99
2023-05-25T15:54:11.949Z,23.20
2023-05-25T15:56:39.989Z,21.12
2023-05-25T15:59:06.767Z,32.56
2023-05-25T16:01:36.828Z,26.05
2023-05-25T16:04:04.164Z,28.33
2023-05-25T16:06:31.973Z,32.53
2023-05-25T16:08:58.824Z,28.87
2023-05-25T16:11:26.982Z,23.56
2023-05-25T16:13:53.994Z,24.65
2023-05-25T16:16:20.736Z,24.75
2023-05-25T16:18:47.331Z,23.30
2023-05-25T16:21:13.839Z,27.41
2023-05-25T16:23:40.300Z,24.98
2023-05-25T16:26:09.938Z,23.81
2023-05-25T16:28:37.458Z,25.58
2023-05-25T16:31:05.510Z,25.43
2023-05-25T16:33:32.791Z,24.85
2023-05-25T16:35:59.995Z,23.74
2023-05-25T16:38:26.507Z,23.43
2023-05-25T16:40:52.960Z,24.08
2023-05-25T16:43:19.578Z,24.63
2023-05-25T16:45:46.243Z,26.67
2023-05-25T16:48:12.927Z,26.61
2023-05-25T16:50:39.377Z,25.42
2023-05-25T16:53:06.227Z,26.67
2023-05-25T16:55:33.619Z,28.16
2023-05-25T16:58:00.097Z,26.38
2023-05-25T17:00:26.572Z,31.37
2023-05-25T17:02:53.135Z,34.44
2023-05-25T17:05:19.683Z,37.91
2023-05-25T17:07:46.256Z,37.27
2023-05-25T17:10:12.728Z,39.50
2023-05-25T17:12:39.143Z,39.33
2023-05-25T17:15:05.970Z,39.11
2023-05-25T17:17:32.403Z,39.43
2023-05-25T17:19:58.937Z,37.03
2023-05-25T17:22:25.400Z,36.07
2023-05-25T17:24:51.826Z,35.48
2023-05-25T17:27:18.581Z,35.01
2023-05-25T17:29:44.986Z,33.16
2023-05-25T17:32:11.475Z,35.25
2023-05-25T17:34:38.016Z,33.47
2023-05-25T17:37:04.492Z,33.64
2023-05-25T17:39:30.910Z,34.45
2023-05-25T17:41:57.889Z,36.13
2023-05-25T17:44:25.340Z,36.71
2023-05-25T17:46:51.764Z,37.33
2023-05-25T17:49:18.223Z,40.81
2023-05-25T17:51:44.628Z,40.45
2023-05-25T17:54:15.296Z,37.53
2023-05-25T17:56:42.099Z,37.41
2023-05-25T17:59:09.551Z,37.22
2023-05-25T18:01:36.054Z,38.43
2023-05-25T18:04:02.695Z,39.16
2023-05-25T18:06:29.487Z,39.87
2023-05-25T18:08:56.104Z,42.04
2023-05-25T18:11:23.331Z,43.24
2023-05-25T18:13:50.272Z,41.96
2023-05-25T18:16:16.897Z,40.52
2023-05-25T18:18:43.361Z,41.32
2023-05-25T18:21:09.786Z,42.64
2023-05-25T18:23:36.191Z,41.62
2023-05-25T18:26:04.433Z,42.88
2023-05-25T18:28:31.454Z,43.72
2023-05-25T18:30:58.024Z,43.81
2023-05-25T18:33:24.490Z,44.70
2023-05-25T18:35:50.934Z,46.05
2023-05-25T18:38:17.359Z,47.21
2023-05-25T18:40:43.798Z,46.86
2023-05-25T18:43:10.303Z,47.40
2023-05-25T18:45:36.731Z,47.22
2023-05-25T18:48:09.191Z,47.27
2023-05-25T18:50:37.611Z,47.94
2023-05-25T18:53:09.873Z,49.28
2023-05-25T18:55:37.310Z,49.47
2023-05-25T18:58:03.994Z,49.84
2023-05-25T19:00:30.902Z,49.82
2023-05-25T19:02:57.443Z,49.42
2023-05-25T19:05:24.444Z,50.09
2023-05-25T19:07:59.003Z,50.05
2023-05-25T19:10:25.771Z,50.49
2023-05-25T19:12:52.231Z,51.25
2023-05-25T19:15:18.670Z,50.88
2023-05-25T19:17:46.594Z,51.14
2023-05-25T19:20:13.202Z,51.75
2023-05-25T19:22:40.327Z,51.50
2023-05-25T19:25:07.278Z,51.92
2023-05-25T19:27:33.734Z,51.86
2023-05-25T19:30:00.353Z,51.95
2023-05-25T19:32:26.810Z,52.21
2023-05-25T19:34:53.249Z,52.96
2023-05-25T19:37:19.670Z,53.20
2023-05-25T19:39:46.081Z,52.73
2023-05-25T19:42:12.488Z,53.09
2023-05-25T19:44:40.565Z,54.02
2023-05-25T19:47:07.409Z,53.21
2023-05-25T19:49:33.851Z,53.02
2023-05-25T19:52:00.265Z,53.46
2023-05-25T19:54:26.668Z,53.98
2023-05-25T19:56:54.051Z,54.29
2023-05-25T19:59:21.686Z,54.95
2023-05-25T20:01:48.511Z,54.80
2023-05-25T20:04:15.090Z,55.68
2023-05-25T20:06:41.506Z,55.60
2023-05-25T20:09:12.328Z,55.03
2023-05-25T20:11:38.783Z,55.49
2023-05-25T20:14:07.373Z,55.45
2023-05-25T20:16:33.951Z,55.19
2023-05-25T20:19:00.522Z,54.66
2023-05-25T20:21:26.972Z,54.56
2023-05-25T20:23:53.416Z,54.47
2023-05-25T20:26:19.835Z,54.34
2023-05-25T20:28:46.266Z,55.11
2023-05-25T20:31:12.717Z,54.07
2023-05-25T20:33:39.108Z,53.74
2023-05-25T20:36:05.751Z,53.99
2023-05-25T20:38:32.164Z,54.11
2023-05-25T20:40:58.624Z,54.02
2023-05-25T20:43:25.048Z,53.65
2023-05-25T20:45:51.512Z,54.42
2023-05-25T20:48:18.083Z,53.95
2023-05-25T20:50:44.518Z,53.43
2023-05-25T20:53:10.996Z,53.88
2023-05-25T20:55:37.496Z,53.49
2023-05-25T20:58:03.889Z,53.99
2023-05-25T21:00:30.560Z,53.78
2023-05-25T21:02:57.087Z,53.75
2023-05-25T21:05:23.581Z,53.49
2023-05-25T21:07:51.384Z,53.77
2023-05-25T21:10:17.861Z,53.77
2023-05-25T21:12:44.304Z,53.52
2023-05-25T21:15:10.746Z,52.86
2023-05-25T21:17:37.215Z,53.16
2023-05-25T21:20:03.989Z,53.89
2023-05-25T21:22:30.521Z,53.34
2023-05-25T21:24:57.204Z,53.41
2023-05-25T21:27:23.612Z,52.87
2023-05-25T21:29:50.080Z,53.21
2023-05-25T21:32:16.491Z,53.13
2023-05-25T21:34:42.891Z,53.49
2023-05-25T21:37:09.304Z,52.62
2023-05-25T21:39:35.750Z,52.84
2023-05-25T21:42:02.387Z,53.39
2023-05-25T21:44:28.814Z,53.36
2023-05-25T21:46:55.323Z,53.62
2023-05-25T21:49:21.770Z,54.05
2023-05-25T21:51:48.179Z,54.20
2023-05-25T21:54:14.593Z,53.98
2023-05-25T21:56:41.014Z,54.22
2023-05-25T21:59:07.479Z,54.50
2023-05-25T22:01:34.085Z,54.67
2023-05-25T22:04:00.653Z,53.80
2023-05-25T22:06:27.065Z,54.11
2023-05-25T22:08:53.520Z,54.32
2023-05-25T22:11:22.151Z,54.28
2023-05-25T22:13:48.636Z,54.82
2023-05-25T22:16:15.125Z,55.03
2023-05-25T22:18:41.559Z,54.54
2023-05-25T22:21:07.969Z,54.63
2023-05-25T22:23:34.644Z,54.66
2023-05-25T22:26:01.113Z,55.64
2023-05-25T22:28:27.514Z,55.48
2023-05-25T22:30:53.985Z,55.83
2023-05-25T22:33:20.451Z,55.90
2023-05-25T22:35:47.030Z,56.24
2023-05-25T22:38:13.631Z,56.38
2023-05-25T22:40:40.049Z,56.68
2023-05-25T22:43:12.667Z,56.70
2023-05-25T22:45:39.871Z,57.02
2023-05-25T22:48:07.076Z,57.07
2023-05-25T22:50:33.493Z,57.93
2023-05-25T22:52:59.942Z,57.47
2023-05-25T22:55:26.376Z,57.82
2023-05-25T22:57:52.786Z,58.41
2023-05-25T23:00:19.259Z,58.90
2023-05-25T23:02:45.756Z,58.66
2023-05-25T23:05:12.274Z,59.16
2023-05-25T23:07:38.760Z,59.21
2023-05-25T23:10:05.644Z,59.34
2023-05-25T23:12:32.059Z,59.31
2023-05-25T23:15:00.654Z,60.06
2023-05-25T23:17:27.096Z,60.14
2023-05-25T23:19:53.632Z,60.81
2023-05-25T23:22:20.519Z,60.50
2023-05-25T23:24:46.968Z,61.02
2023-05-25T23:27:13.401Z,61.03
2023-05-25T23:29:39.832Z,60.66
2023-05-25T23:32:06.834Z,61.58
2023-05-25T23:34:33.322Z,61.32
2023-05-25T23:36:59.719Z,61.66
2023-05-25T23:39:26.332Z,61.36
2023-05-25T23:41:52.785Z,61.94
2023-05-25T23:44:19.231Z,61.92
2023-05-25T23:46:45.665Z,62.01
2023-05-25T23:49:12.068Z,61.89
2023-05-25T23:51:38.613Z,62.60
2023-05-25T23:54:05.034Z,62.06
2023-05-25T23:56:32.614Z,62.64
2023-05-25T23:58:59.064Z,63.50
